createdAt,value
2022-11-14T00:01:10.379Z,43.03
2022-11-14T00:03:56.122Z,44.20
2022-11-14T00:06:41.674Z,43.00
2022-11-14T00:09:28.184Z,37.77
2022-11-14T00:12:14.016Z,44.17
2022-11-14T00:14:59.896Z,39.80
2022-11-14T00:17:45.645Z,34.97
2022-11-14T00:20:32.511Z,42.90
2022-11-14T00:23:19.397Z,44.03
2022-11-14T00:26:05.259Z,35.77
2022-11-14T00:28:50.755Z,38.53
2022-11-14T00:31:36.278Z,40.73
2022-11-14T00:34:21.843Z,56.50
2022-11-14T00:37:07.613Z,49.10
2022-11-14T00:39:53.208Z,45.83
2022-11-14T00:42:38.651Z,49.20
2022-11-14T00:45:24.625Z,43.43
2022-11-14T00:48:10.124Z,45.97
2022-11-14T00:50:55.786Z,41.17
2022-11-14T00:53:41.319Z,41.70
2022-11-14T00:56:26.669Z,36.30
2022-11-14T00:59:12.301Z,45.57
2022-11-14T01:01:58.187Z,43.00
2022-11-14T01:04:43.926Z,35.20
2022-11-14T01:07:30.149Z,37.97
2022-11-14T01:10:17.726Z,35.20
2022-11-14T01:13:03.375Z,41.63
2022-11-14T01:15:49.897Z,39.90
2022-11-14T01:18:36.592Z,34.60
2022-11-14T01:21:22.194Z,42.23
2022-11-14T01:24:08.477Z,40.57
2022-11-14T01:26:56.437Z,34.40
2022-11-14T01:29:42.022Z,34.70
2022-11-14T01:32:27.903Z,35.23
2022-11-14T01:35:13.246Z,42.27
2022-11-14T01:37:59.386Z,37.50
2022-11-14T01:40:46.579Z,42.13
2022-11-14T01:43:38.684Z,47.97
2022-11-14T01:46:38.051Z,44.87
2022-11-14T01:49:36.168Z,34.27
2022-11-14T01:52:38.273Z,35.20
2022-11-14T01:55:24.231Z,40.00
2022-11-14T01:58:10.737Z,38.50
2022-11-14T02:00:57.614Z,39.80
2022-11-14T02:03:46.340Z,35.80
2022-11-14T02:06:33.216Z,39.20
2022-11-14T02:09:18.933Z,38.37
2022-11-14T02:12:09.087Z,33.47
2022-11-14T02:14:57.367Z,40.30
2022-11-14T02:17:44.371Z,31.90
2022-11-14T02:20:35.974Z,33.70
2022-11-14T02:23:28.251Z,41.63
2022-11-14T02:26:21.401Z,34.60
2022-11-14T02:29:07.729Z,27.23
2022-11-14T02:31:53.507Z,37.30
2022-11-14T02:34:39.556Z,35.90
2022-11-14T02:37:25.373Z,38.30
2022-11-14T02:40:11.726Z,37.83
2022-11-14T02:42:57.358Z,39.33
2022-11-14T02:45:42.988Z,34.90
2022-11-14T02:48:28.833Z,32.20
2022-11-14T02:51:14.896Z,36.50
2022-11-14T02:54:00.288Z,35.60
2022-11-14T02:56:45.742Z,33.53
2022-11-14T02:59:31.229Z,34.70
2022-11-14T03:02:16.695Z,36.30
2022-11-14T03:05:02.118Z,32.90
2022-11-14T03:07:48.118Z,35.00
2022-11-14T03:10:33.449Z,35.63
2022-11-14T03:13:18.827Z,37.37
2022-11-14T03:16:10.658Z,29.50
2022-11-14T03:18:56.319Z,35.33
2022-11-14T03:21:41.956Z,32.53
2022-11-14T03:24:27.452Z,33.57
2022-11-14T03:27:12.912Z,30.67
2022-11-14T03:29:58.511Z,28.93
2022-11-14T03:32:44.476Z,25.87
2022-11-14T03:35:29.922Z,28.60
2022-11-14T03:38:15.582Z,27.13
2022-11-14T03:41:01.616Z,35.67
2022-11-14T03:43:47.284Z,30.47
2022-11-14T03:46:32.872Z,30.47
2022-11-14T03:49:18.789Z,30.37
2022-11-14T03:52:04.825Z,29.23
2022-11-14T03:54:50.932Z,30.70
2022-11-14T03:57:36.673Z,30.83
2022-11-14T04:00:22.636Z,31.13
2022-11-14T04:03:08.308Z,31.10
2022-11-14T04:05:53.904Z,26.87
2022-11-14T04:08:41.444Z,30.53
2022-11-14T04:11:26.874Z,30.40
2022-11-14T04:14:12.600Z,30.27
2022-11-14T04:16:57.899Z,29.13
2022-11-14T04:19:43.445Z,29.53
2022-11-14T04:22:28.996Z,26.63
2022-11-14T04:25:14.417Z,28.80
2022-11-14T04:28:00.094Z,26.73
2022-11-14T04:30:45.546Z,27.33
2022-11-14T04:33:31.409Z,29.13
2022-11-14T04:36:16.914Z,25.47
2022-11-14T04:39:02.451Z,28.47
2022-11-14T04:41:47.857Z,35.30
2022-11-14T04:44:33.228Z,26.63
2022-11-14T04:47:18.783Z,29.10
2022-11-14T04:50:04.836Z,26.00
2022-11-14T04:52:54.085Z,28.73
2022-11-14T04:55:39.805Z,35.57
2022-11-14T04:58:25.382Z,28.70
2022-11-14T05:01:12.231Z,28.00
2022-11-14T05:03:58.302Z,27.37
2022-11-14T05:06:44.382Z,29.57
2022-11-14T05:09:30.280Z,28.23
2022-11-14T05:12:15.753Z,30.37
2022-11-14T05:15:01.623Z,29.40
2022-11-14T05:17:47.461Z,27.13
2022-11-14T05:20:33.435Z,28.43
2022-11-14T05:23:23.243Z,32.23
2022-11-14T05:26:18.445Z,29.77
2022-11-14T05:29:04.704Z,30.17
2022-11-14T05:31:50.500Z,29.27
2022-11-14T05:34:36.225Z,30.63
2022-11-14T05:37:21.533Z,28.83
2022-11-14T05:40:07.675Z,32.27
2022-11-14T05:42:56.676Z,33.50
2022-11-14T05:45:42.251Z,27.93
2022-11-14T05:48:29.358Z,33.67
2022-11-14T05:51:15.378Z,30.97
2022-11-14T05:54:00.735Z,31.53
2022-11-14T05:56:46.563Z,28.27
2022-11-14T05:59:32.923Z,32.03
2022-11-14T06:02:18.820Z,33.53
2022-11-14T06:05:05.392Z,30.90
2022-11-14T06:07:58.614Z,33.20
2022-11-14T06:10:44.041Z,28.30
2022-11-14T06:13:30.293Z,34.30
2022-11-14T06:16:19.082Z,31.03
2022-11-14T06:19:05.433Z,33.83
2022-11-14T06:21:51.025Z,33.57
2022-11-14T06:24:36.753Z,34.10
2022-11-14T06:27:22.739Z,41.97
2022-11-14T06:30:09.269Z,32.33
2022-11-14T06:33:01.249Z,35.60
2022-11-14T06:35:47.195Z,37.37
2022-11-14T06:38:35.355Z,30.97
2022-11-14T06:41:22.881Z,36.00
2022-11-14T06:44:08.947Z,34.17
2022-11-14T06:46:54.273Z,34.53
2022-11-14T06:49:40.871Z,37.50
2022-11-14T06:52:27.301Z,32.07
2022-11-14T06:55:13.220Z,32.93
2022-11-14T06:57:58.752Z,31.77
2022-11-14T07:00:44.228Z,30.93
2022-11-14T07:03:30.195Z,36.60
2022-11-14T07:06:23.036Z,32.13
2022-11-14T07:09:11.204Z,35.80
2022-11-14T07:11:56.578Z,35.37
2022-11-14T07:14:42.472Z,37.50
2022-11-14T07:17:31.209Z,32.30
2022-11-14T07:20:20.803Z,35.50
2022-11-14T07:23:06.962Z,33.47
2022-11-14T07:25:52.576Z,31.70
2022-11-14T07:28:42.323Z,34.07
2022-11-14T07:31:27.896Z,33.20
2022-11-14T07:34:13.950Z,34.90
2022-11-14T07:36:59.316Z,33.40
2022-11-14T07:39:46.050Z,38.10
2022-11-14T07:42:31.603Z,31.43
2022-11-14T07:45:17.149Z,33.03
2022-11-14T07:48:03.463Z,26.90
2022-11-14T07:50:50.641Z,31.83
2022-11-14T07:53:36.339Z,32.87
2022-11-14T07:56:22.473Z,27.60
2022-11-14T07:59:08.453Z,27.87
2022-11-14T08:01:54.419Z,28.80
2022-11-14T08:04:43.150Z,29.47
2022-11-14T08:07:28.723Z,29.13
2022-11-14T08:10:15.567Z,28.93
2022-11-14T08:13:30.240Z,32.60
2022-11-14T08:16:13.736Z,30.83
2022-11-14T08:19:00.875Z,28.50
2022-11-14T08:21:46.501Z,29.50
2022-11-14T08:24:32.439Z,25.87
2022-11-14T08:27:18.857Z,28.17
2022-11-14T08:30:05.828Z,32.67
2022-11-14T08:32:51.783Z,27.90
2022-11-14T08:35:37.541Z,26.60
2022-11-14T08:38:23.196Z,27.97
2022-11-14T08:41:09.401Z,31.20
2022-11-14T08:43:55.139Z,30.03
2022-11-14T08:46:40.824Z,30.10
2022-11-14T08:49:26.985Z,28.30
2022-11-14T08:52:16.700Z,25.80
2022-11-14T08:55:02.853Z,25.00
2022-11-14T08:57:49.906Z,27.07
2022-11-14T09:00:36.539Z,25.33
2022-11-14T09:03:22.357Z,25.60
2022-11-14T09:06:08.389Z,24.00
2022-11-14T09:08:53.905Z,26.83
2022-11-14T09:11:39.595Z,23.23
2022-11-14T09:14:25.686Z,24.07
2022-11-14T09:17:11.115Z,25.40
2022-11-14T09:19:57.120Z,27.00
2022-11-14T09:22:43.321Z,25.60
2022-11-14T09:25:30.799Z,23.77
2022-11-14T09:28:16.293Z,23.30
2022-11-14T09:31:04.924Z,24.83
2022-11-14T09:33:50.878Z,24.83
2022-11-14T09:36:37.143Z,23.93
2022-11-14T09:39:22.426Z,24.33
2022-11-14T09:42:40.370Z,22.33
2022-11-14T09:45:27.783Z,24.70
2022-11-14T09:48:18.036Z,24.90
2022-11-14T09:51:21.394Z,22.67
2022-11-14T09:54:25.209Z,21.20
2022-11-14T09:57:17.888Z,21.87
2022-11-14T10:00:13.544Z,23.63
2022-11-14T10:03:11.283Z,24.57
2022-11-14T10:06:22.857Z,26.20
2022-11-14T10:09:51.222Z,21.00
2022-11-14T10:12:46.454Z,26.03
2022-11-14T10:15:42.786Z,21.10
2022-11-14T10:19:00.868Z,22.40
2022-11-14T10:22:23.380Z,22.90
2022-11-14T10:25:49.311Z,22.00
2022-11-14T10:29:05.620Z,26.40
2022-11-14T10:32:28.780Z,22.77
2022-11-14T10:35:35.231Z,23.83
2022-11-14T10:38:37.006Z,19.97
2022-11-14T10:41:49.927Z,20.07
2022-11-14T10:44:45.141Z,22.60
2022-11-14T10:47:48.972Z,19.50
2022-11-14T10:50:48.116Z,20.27
2022-11-14T10:53:45.703Z,21.33
2022-11-14T10:56:31.526Z,22.50
2022-11-14T10:59:17.598Z,21.10
2022-11-14T11:02:03.357Z,22.97
2022-11-14T11:04:49.202Z,19.97
2022-11-14T11:08:28.232Z,20.90
2022-11-14T11:11:30.308Z,22.20
2022-11-14T11:14:19.878Z,27.03
2022-11-14T11:17:28.064Z,18.37
2022-11-14T11:20:33.604Z,23.93
2022-11-14T11:23:25.806Z,19.07
2022-11-14T11:26:32.146Z,20.83
2022-11-14T11:29:19.972Z,18.83
2022-11-14T11:32:07.530Z,15.87
2022-11-14T11:34:53.919Z,16.73
2022-11-14T11:37:55.008Z,19.13
2022-11-14T11:40:44.444Z,18.53
2022-11-14T11:43:56.632Z,21.20
2022-11-14T11:46:48.555Z,16.80
2022-11-14T11:49:45.410Z,16.33
2022-11-14T11:52:47.584Z,17.40
2022-11-14T11:55:49.494Z,16.80
2022-11-14T11:58:50.917Z,15.00
2022-11-14T12:01:36.853Z,17.30
2022-11-14T12:04:22.495Z,17.17
2022-11-14T12:07:19.935Z,13.40
2022-11-14T12:10:29.022Z,15.00
2022-11-14T12:13:47.217Z,15.03
2022-11-14T12:17:10.147Z,14.73
2022-11-14T12:20:36.794Z,15.30
2022-11-14T12:23:43.754Z,14.93
2022-11-14T12:26:44.742Z,13.40
2022-11-14T12:30:22.251Z,14.40
2022-11-14T12:33:17.155Z,16.13
2022-11-14T12:36:10.669Z,13.40
2022-11-14T12:38:57.744Z,17.03
2022-11-14T12:41:43.796Z,13.90
2022-11-14T12:44:29.669Z,14.10
2022-11-14T12:47:28.239Z,19.80
2022-11-14T12:50:42.501Z,17.27
2022-11-14T12:53:37.128Z,17.03
2022-11-14T12:56:32.158Z,15.03
2022-11-14T12:59:40.828Z,14.33
2022-11-14T13:02:55.831Z,15.30
2022-11-14T13:06:11.603Z,16.40
2022-11-14T13:09:34.707Z,15.93
2022-11-14T13:12:51.773Z,16.40
2022-11-14T13:16:11.622Z,15.77
2022-11-14T13:19:32.504Z,19.50
2022-11-14T13:22:37.266Z,15.23
2022-11-14T13:25:24.270Z,18.87
2022-11-14T13:28:38.986Z,18.77
2022-11-14T13:31:36.657Z,16.10
2022-11-14T13:34:53.395Z,16.83
2022-11-14T13:38:18.744Z,15.77
2022-11-14T13:41:24.377Z,16.67
2022-11-14T13:44:24.817Z,19.73
2022-11-14T13:47:34.882Z,22.30
2022-11-14T13:50:33.382Z,17.93
2022-11-14T13:53:27.155Z,20.57
2022-11-14T13:56:34.878Z,14.60
2022-11-14T13:59:41.422Z,23.03
2022-11-14T14:02:36.068Z,18.83
2022-11-14T14:05:28.277Z,16.77
2022-11-14T14:08:58.098Z,21.70
2022-11-14T14:12:04.652Z,23.90
2022-11-14T14:15:15.396Z,23.70
2022-11-14T14:18:29.004Z,21.93
2022-11-14T14:21:48.573Z,24.20
2022-11-14T14:24:57.888Z,21.10
2022-11-14T14:27:58.026Z,24.70
2022-11-14T14:31:11.445Z,23.27
2022-11-14T14:33:57.268Z,23.13
2022-11-14T14:36:52.957Z,28.43
2022-11-14T14:39:38.798Z,23.07
2022-11-14T14:42:29.450Z,29.60
2022-11-14T14:45:21.506Z,27.20
2022-11-14T14:48:18.592Z,25.50
2022-11-14T14:51:05.864Z,26.17
2022-11-14T14:53:53.970Z,26.73
2022-11-14T14:56:40.264Z,24.83
2022-11-14T14:59:29.400Z,30.90
2022-11-14T15:02:17.956Z,28.80
2022-11-14T15:05:05.706Z,28.80
2022-11-14T15:07:57.463Z,26.03
2022-11-14T15:10:43.832Z,26.20
2022-11-14T15:13:31.387Z,29.73
2022-11-14T15:16:17.156Z,29.03
2022-11-14T15:19:04.099Z,26.60
2022-11-14T15:22:24.582Z,28.23
2022-11-14T15:25:13.346Z,24.83
2022-11-14T15:28:00.448Z,27.40
2022-11-14T15:31:04.447Z,31.03
2022-11-14T15:34:19.718Z,30.33
2022-11-14T15:37:21.724Z,31.90
2022-11-14T15:40:19.553Z,35.00
2022-11-14T15:43:49.380Z,36.03
2022-11-14T15:46:35.392Z,30.80
2022-11-14T15:49:24.334Z,32.03
2022-11-14T15:52:35.428Z,33.80
2022-11-14T15:55:24.317Z,33.03
2022-11-14T15:58:28.715Z,35.80
2022-11-14T16:01:27.459Z,39.90
2022-11-14T16:04:23.474Z,31.33
2022-11-14T16:07:17.242Z,38.30
2022-11-14T16:10:03.690Z,39.33
2022-11-14T16:12:52.433Z,35.73
2022-11-14T16:15:38.955Z,36.10
2022-11-14T16:18:24.568Z,37.70
2022-11-14T16:21:16.442Z,42.30
2022-11-14T16:24:02.139Z,40.50
2022-11-14T16:26:49.004Z,40.77
2022-11-14T16:29:34.836Z,37.30
2022-11-14T16:32:20.976Z,41.63
2022-11-14T16:35:13.485Z,42.53
2022-11-14T16:37:59.219Z,46.40
2022-11-14T16:40:45.369Z,42.33
2022-11-14T16:43:31.376Z,41.90
2022-11-14T16:46:17.375Z,46.97
2022-11-14T16:49:02.961Z,43.60
2022-11-14T16:51:50.596Z,48.77
2022-11-14T16:54:37.113Z,42.30
2022-11-14T16:57:23.191Z,42.40
2022-11-14T17:00:12.626Z,42.13
2022-11-14T17:02:58.392Z,51.70
2022-11-14T17:05:46.470Z,47.23
2022-11-14T17:08:32.346Z,49.20
2022-11-14T17:11:18.332Z,51.03
2022-11-14T17:14:03.965Z,46.47
2022-11-14T17:16:49.364Z,49.23
2022-11-14T17:19:34.923Z,52.97
2022-11-14T17:22:20.569Z,46.70
2022-11-14T17:25:06.658Z,48.93
2022-11-14T17:27:52.502Z,47.03
2022-11-14T17:30:42.668Z,48.03
2022-11-14T17:33:29.149Z,49.63
2022-11-14T17:36:15.258Z,51.43
2022-11-14T17:39:01.417Z,50.27
2022-11-14T17:41:47.548Z,46.80
2022-11-14T17:44:33.638Z,52.67
2022-11-14T17:47:20.616Z,52.97
2022-11-14T17:50:06.881Z,48.60
2022-11-14T17:52:52.954Z,55.60
2022-11-14T17:55:38.807Z,55.47
2022-11-14T17:58:25.002Z,47.53
2022-11-14T18:01:16.597Z,49.60
2022-11-14T18:04:06.095Z,56.67
2022-11-14T18:06:53.386Z,52.67
2022-11-14T18:09:42.181Z,51.13
2022-11-14T18:12:28.296Z,59.30
2022-11-14T18:15:15.188Z,56.53
2022-11-14T18:18:01.376Z,53.43
2022-11-14T18:20:47.435Z,57.10
2022-11-14T18:23:33.362Z,54.83
2022-11-14T18:26:21.689Z,56.97
2022-11-14T18:29:07.805Z,57.57
2022-11-14T18:31:53.307Z,60.57
2022-11-14T18:34:40.838Z,61.67
2022-11-14T18:37:26.364Z,61.97
2022-11-14T18:40:16.515Z,72.00
2022-11-14T18:43:02.506Z,62.73
2022-11-14T18:45:48.555Z,59.77
2022-11-14T18:48:36.190Z,63.23
2022-11-14T18:51:26.457Z,60.23
2022-11-14T18:54:15.854Z,55.20
2022-11-14T18:57:01.854Z,51.87
2022-11-14T18:59:47.699Z,60.43
2022-11-14T19:02:33.237Z,56.57
2022-11-14T19:05:19.277Z,53.47
2022-11-14T19:08:07.356Z,57.97
2022-11-14T19:10:53.015Z,53.27
2022-11-14T19:13:38.705Z,64.37
2022-11-14T19:16:24.428Z,62.83
2022-11-14T19:19:11.013Z,66.97
2022-11-14T19:21:56.997Z,70.60
2022-11-14T19:24:43.230Z,65.43
2022-11-14T19:27:29.005Z,66.53
2022-11-14T19:30:16.955Z,70.93
2022-11-14T19:33:04.833Z,70.87
2022-11-14T19:35:50.782Z,66.33
2022-11-14T19:38:36.354Z,71.07
2022-11-14T19:41:27.543Z,72.63
2022-11-14T19:44:13.085Z,67.17
2022-11-14T19:46:58.919Z,72.57
2022-11-14T19:49:44.342Z,110.20
2022-11-14T19:52:29.896Z,75.20
2022-11-14T19:55:15.708Z,75.93
2022-11-14T19:58:01.211Z,75.47
2022-11-14T20:00:46.785Z,77.93
2022-11-14T20:03:32.824Z,78.77
2022-11-14T20:06:34.379Z,82.60
2022-11-14T20:09:20.120Z,78.83
2022-11-14T20:12:05.958Z,80.93
2022-11-14T20:14:51.702Z,76.83
2022-11-14T20:17:37.337Z,80.47
2022-11-14T20:20:22.917Z,72.30
2022-11-14T20:23:09.921Z,86.47
2022-11-14T20:25:55.785Z,72.83
2022-11-14T20:28:44.587Z,71.03
2022-11-14T20:31:31.606Z,76.57
2022-11-14T20:34:17.419Z,77.07
2022-11-14T20:37:11.659Z,80.50
2022-11-14T20:39:57.965Z,76.13
2022-11-14T20:42:49.171Z,75.27
2022-11-14T20:45:35.879Z,73.17
2022-11-14T20:48:21.657Z,74.60
2022-11-14T20:51:12.636Z,80.30
2022-11-14T20:53:58.721Z,81.77
2022-11-14T20:56:44.346Z,71.40
2022-11-14T20:59:30.539Z,85.77
2022-11-14T21:02:16.412Z,73.07
2022-11-14T21:05:02.698Z,77.00
2022-11-14T21:07:48.624Z,71.93
2022-11-14T21:10:45.601Z,73.97
2022-11-14T21:13:56.098Z,77.17
2022-11-14T21:16:42.163Z,74.10
2022-11-14T21:19:29.369Z,70.93
2022-11-14T21:22:15.632Z,76.13
2022-11-14T21:25:01.920Z,67.43
2022-11-14T21:27:47.590Z,75.70
2022-11-14T21:30:34.703Z,71.07
2022-11-14T21:33:20.290Z,63.30
2022-11-14T21:36:30.102Z,79.53
2022-11-14T21:39:16.823Z,76.30
2022-11-14T21:42:03.203Z,77.77
2022-11-14T21:44:48.657Z,82.13
2022-11-14T21:47:34.854Z,79.30
2022-11-14T21:50:20.439Z,70.97
2022-11-14T21:53:15.876Z,71.77
2022-11-14T21:56:27.862Z,79.07
2022-11-14T21:59:18.779Z,77.77
2022-11-14T22:02:23.585Z,81.37
2022-11-14T22:05:09.126Z,77.30
2022-11-14T22:07:54.676Z,87.00
2022-11-14T22:10:40.709Z,76.67
2022-11-14T22:13:26.226Z,70.67
2022-11-14T22:16:12.134Z,82.20
2022-11-14T22:19:04.569Z,72.47
2022-11-14T22:21:50.912Z,68.60
2022-11-14T22:24:36.921Z,72.70
2022-11-14T22:27:22.528Z,66.90
2022-11-14T22:30:08.781Z,68.93
2022-11-14T22:32:54.422Z,66.20
2022-11-14T22:35:40.036Z,64.10
2022-11-14T22:38:28.765Z,75.60
2022-11-14T22:41:19.277Z,71.37
2022-11-14T22:44:05.239Z,81.70
2022-11-14T22:46:50.703Z,68.33
2022-11-14T22:49:36.135Z,66.43
2022-11-14T22:52:21.551Z,65.93
2022-11-14T22:55:07.382Z,68.07
2022-11-14T22:57:53.037Z,73.80
2022-11-14T23:00:38.685Z,78.27
2022-11-14T23:03:49.298Z,75.23
2022-11-14T23:06:35.482Z,77.57
2022-11-14T23:09:21.471Z,69.70
2022-11-14T23:12:07.716Z,77.70
2022-11-14T23:14:53.595Z,77.63
2022-11-14T23:17:39.228Z,72.53
2022-11-14T23:20:24.638Z,70.17
2022-11-14T23:23:10.299Z,74.87
2022-11-14T23:25:56.099Z,73.20
2022-11-14T23:28:41.483Z,72.87
2022-11-14T23:31:27.265Z,71.43
2022-11-14T23:34:12.880Z,72.13
2022-11-14T23:36:58.252Z,73.87
2022-11-14T23:39:43.767Z,68.27
2022-11-14T23:42:29.117Z,79.73
2022-11-14T23:45:14.570Z,76.13
2022-11-14T23:47:59.975Z,75.43
2022-11-14T23:50:49.820Z,72.87
2022-11-14T23:53:35.566Z,68.83
2022-11-14T23:56:20.943Z,60.77
2022-11-14T23:59:06.351Z,67.73
